createdAt,value
2019-03-17T00:00:33.274Z,99952.13
2019-03-17T00:03:02.880Z,99956.05
2019-03-17T00:05:32.484Z,99938.27
2019-03-17T00:08:02.159Z,99937.53
2019-03-17T00:10:32.622Z,99929.27
2019-03-17T00:13:02.207Z,99926.44
2019-03-17T00:15:33.598Z,99923.53
2019-03-17T00:18:03.210Z,99918.87
2019-03-17T00:20:33.390Z,99913.05
2019-03-17T00:23:03.235Z,99911.88
2019-03-17T00:25:32.848Z,99918.28
2019-03-17T00:28:02.457Z,99910.93
2019-03-17T00:30:33.277Z,99900.75
2019-03-17T00:33:03.867Z,99894.91
2019-03-17T00:35:33.500Z,99890.75
2019-03-17T00:38:04.247Z,99881.97
2019-03-17T00:40:34.134Z,99879.44
2019-03-17T00:43:04.599Z,99875.80
2019-03-17T00:45:34.235Z,99867.78
2019-03-17T00:48:04.129Z,99873.66
2019-03-17T00:50:33.723Z,99867.73
2019-03-17T00:53:03.418Z,99860.90
2019-03-17T00:55:32.969Z,99853.72
2019-03-17T00:58:02.589Z,99850.80
2019-03-17T01:00:32.900Z,99845.38
2019-03-17T01:03:02.783Z,99840.03
2019-03-17T01:05:32.396Z,99834.98
2019-03-17T01:08:02.046Z,99839.89
2019-03-17T01:10:31.648Z,99834.27
2019-03-17T01:13:02.254Z,99830.48
2019-03-17T01:15:32.128Z,99833.69
2019-03-17T01:18:01.750Z,99829.27
2019-03-17T01:20:31.426Z,99818.65
2019-03-17T01:23:01.625Z,99811.08
2019-03-17T01:25:31.404Z,99802.44
2019-03-17T01:28:01.169Z,99803.35
2019-03-17T01:30:30.858Z,99800.00
2019-03-17T01:33:00.479Z,99799.92
2019-03-17T01:35:32.636Z,99785.00
2019-03-17T01:38:02.139Z,99791.66
2019-03-17T01:40:32.223Z,99796.80
2019-03-17T01:43:01.861Z,99790.41
2019-03-17T01:45:31.475Z,99790.65
2019-03-17T01:48:01.976Z,99787.73
2019-03-17T01:50:31.919Z,99774.92
2019-03-17T01:53:01.765Z,99777.06
2019-03-17T01:55:31.513Z,99771.95
2019-03-17T01:58:01.247Z,99773.16
2019-03-17T02:00:30.810Z,99766.27
2019-03-17T02:03:00.439Z,99771.91
2019-03-17T02:05:30.196Z,99770.35
2019-03-17T02:07:59.928Z,99762.40
2019-03-17T02:10:30.103Z,99760.50
2019-03-17T02:13:00.125Z,99760.41
2019-03-17T02:15:30.638Z,99758.70
2019-03-17T02:18:00.662Z,99755.98
2019-03-17T02:20:30.580Z,99746.91
2019-03-17T02:23:00.465Z,99755.09
2019-03-17T02:25:30.191Z,99737.48
2019-03-17T02:27:59.996Z,99738.74
2019-03-17T02:30:32.019Z,99734.02
2019-03-17T02:33:01.797Z,99735.48
2019-03-17T02:35:39.667Z,99740.09
2019-03-17T02:38:03.929Z,99736.45
2019-03-17T02:40:33.581Z,99738.00
2019-03-17T02:43:03.357Z,99730.75
2019-03-17T02:45:32.964Z,99724.20
2019-03-17T02:48:03.094Z,99723.26
2019-03-17T02:50:32.732Z,99721.91
2019-03-17T02:53:02.337Z,99712.03
2019-03-17T02:55:32.015Z,99714.11
2019-03-17T02:58:02.343Z,99706.48
2019-03-17T03:00:32.124Z,99714.25
2019-03-17T03:03:02.686Z,99713.16
2019-03-17T03:05:32.370Z,99715.97
2019-03-17T03:08:02.090Z,99713.38
2019-03-17T03:10:33.246Z,99707.41
2019-03-17T03:13:03.426Z,99705.27
2019-03-17T03:15:33.564Z,99711.43
2019-03-17T03:18:03.351Z,99709.00
2019-03-17T03:20:33.086Z,99705.94
2019-03-17T03:23:03.214Z,99709.95
2019-03-17T03:25:33.294Z,99711.05
2019-03-17T03:28:05.162Z,99707.93
2019-03-17T03:30:34.762Z,99702.34
2019-03-17T03:33:04.414Z,99700.92
2019-03-17T03:35:34.044Z,99706.36
2019-03-17T03:38:03.670Z,99702.06
2019-03-17T03:40:33.442Z,99709.55
2019-03-17T03:43:03.095Z,99702.69
2019-03-17T03:45:32.707Z,99702.91
2019-03-17T03:48:02.631Z,99693.84
2019-03-17T03:50:32.242Z,99692.86
2019-03-17T03:53:01.845Z,99695.33
2019-03-17T03:55:31.472Z,99687.20
2019-03-17T03:58:01.718Z,99688.24
2019-03-17T04:00:31.590Z,99683.40
2019-03-17T04:03:01.907Z,99682.86
2019-03-17T04:05:32.990Z,99689.12
2019-03-17T04:08:03.012Z,99684.34
2019-03-17T04:10:32.629Z,99682.09
2019-03-17T04:13:03.370Z,99676.52
2019-03-17T04:15:32.998Z,99673.90
2019-03-17T04:18:03.243Z,99669.59
2019-03-17T04:20:33.772Z,99677.09
2019-03-17T04:23:03.375Z,99674.11
2019-03-17T04:25:33.253Z,99667.34
2019-03-17T04:28:03.319Z,99669.94
2019-03-17T04:30:32.889Z,99666.97
2019-03-17T04:33:02.495Z,99663.11
2019-03-17T04:35:34.031Z,99668.45
2019-03-17T04:38:03.647Z,99674.23
2019-03-17T04:40:34.024Z,99676.97
2019-03-17T04:43:05.274Z,99675.92
2019-03-17T04:45:35.268Z,99673.66
2019-03-17T04:48:05.144Z,99675.69
2019-03-17T04:50:34.791Z,99672.98
2019-03-17T04:53:05.374Z,99670.29
2019-03-17T04:55:35.356Z,99670.50
2019-03-17T04:58:05.437Z,99664.82
2019-03-17T05:00:35.384Z,99663.84
2019-03-17T05:03:05.001Z,99658.60
2019-03-17T05:05:34.881Z,99665.68
2019-03-17T05:08:04.781Z,99665.95
2019-03-17T05:10:34.394Z,99662.88
2019-03-17T05:13:04.631Z,99670.98
2019-03-17T05:15:34.326Z,99668.31
2019-03-17T05:18:03.936Z,99664.38
2019-03-17T05:20:34.392Z,99657.22
2019-03-17T05:23:05.875Z,99656.84
2019-03-17T05:25:35.919Z,99661.20
2019-03-17T05:28:05.579Z,99661.27
2019-03-17T05:30:35.321Z,99659.55
2019-03-17T05:33:05.018Z,99654.76
2019-03-17T05:35:34.700Z,99657.11
2019-03-17T05:38:04.754Z,99654.59
2019-03-17T05:40:36.053Z,99647.00
2019-03-17T05:43:05.692Z,99653.78
2019-03-17T05:45:35.474Z,99647.06
2019-03-17T05:48:05.240Z,99648.70
2019-03-17T05:50:34.914Z,99643.20
2019-03-17T05:53:04.544Z,99632.69
2019-03-17T05:55:35.369Z,99635.06
2019-03-17T05:58:05.841Z,99632.92
2019-03-17T06:00:35.684Z,99632.99
2019-03-17T06:03:05.354Z,99630.46
2019-03-17T06:05:35.100Z,99635.01
2019-03-17T06:08:04.711Z,99637.24
2019-03-17T06:10:35.206Z,99642.68
2019-03-17T06:13:05.413Z,99631.83
2019-03-17T06:15:35.462Z,99627.93
2019-03-17T06:18:05.084Z,99630.58
2019-03-17T06:20:35.555Z,99632.30
2019-03-17T06:23:06.307Z,99627.56
2019-03-17T06:25:36.096Z,99627.42
2019-03-17T06:28:06.138Z,99618.08
2019-03-17T06:30:35.816Z,99617.91
2019-03-17T06:33:05.818Z,99621.00
2019-03-17T06:35:35.482Z,99625.26
2019-03-17T06:38:05.940Z,99623.80
2019-03-17T06:40:35.857Z,99624.25
2019-03-17T06:43:06.367Z,99606.24
2019-03-17T06:45:35.983Z,99624.24
2019-03-17T06:48:05.727Z,99620.17
2019-03-17T06:50:35.382Z,99617.12
2019-03-17T06:53:05.099Z,99617.91
2019-03-17T06:55:35.625Z,99621.19
2019-03-17T06:58:06.343Z,99616.83
2019-03-17T07:00:36.326Z,99619.48
2019-03-17T07:03:06.245Z,99614.11
2019-03-17T07:05:36.241Z,99619.92
2019-03-17T07:08:05.844Z,99616.64
2019-03-17T07:10:36.532Z,99621.27
2019-03-17T07:13:06.203Z,99610.23
2019-03-17T07:15:35.889Z,99606.32
2019-03-17T07:18:05.504Z,99611.13
2019-03-17T07:20:35.913Z,99602.63
2019-03-17T07:23:05.738Z,99607.88
2019-03-17T07:25:35.359Z,99605.67
2019-03-17T07:28:05.015Z,99601.67
2019-03-17T07:30:34.619Z,99605.03
2019-03-17T07:33:04.492Z,99597.34
2019-03-17T07:35:34.172Z,99600.14
2019-03-17T07:38:03.772Z,99591.62
2019-03-17T07:40:33.386Z,99600.20
2019-03-17T07:43:03.613Z,99593.50
2019-03-17T07:45:33.444Z,99589.93
2019-03-17T07:48:05.357Z,99591.44
2019-03-17T07:50:35.153Z,99598.38
2019-03-17T07:53:04.905Z,99601.80
2019-03-17T07:55:35.239Z,99595.81
2019-03-17T07:58:05.639Z,99596.69
2019-03-17T08:00:35.694Z,99596.48
2019-03-17T08:03:05.318Z,99596.20
2019-03-17T08:05:35.045Z,99591.75
2019-03-17T08:08:09.639Z,99599.37
2019-03-17T08:10:36.125Z,99582.19
2019-03-17T08:13:05.784Z,99582.22
2019-03-17T08:15:36.400Z,99585.29
2019-03-17T08:18:05.993Z,99579.70
2019-03-17T08:20:35.673Z,99575.59
2019-03-17T08:23:06.168Z,99574.91
2019-03-17T08:25:35.783Z,99577.21
2019-03-17T08:28:05.489Z,99576.92
2019-03-17T08:30:35.945Z,99584.88
2019-03-17T08:33:05.636Z,99590.81
2019-03-17T08:35:35.387Z,99579.27
2019-03-17T08:38:05.077Z,99590.36
2019-03-17T08:40:34.876Z,99582.83
2019-03-17T08:43:04.534Z,99592.33
2019-03-17T08:45:34.139Z,99578.31
2019-03-17T08:48:03.963Z,99574.70
2019-03-17T08:50:33.617Z,99587.75
2019-03-17T08:53:03.253Z,99587.09
2019-03-17T08:55:32.878Z,99590.86
2019-03-17T08:58:02.952Z,99587.82
2019-03-17T09:00:32.605Z,99590.00
2019-03-17T09:03:03.969Z,99589.87
2019-03-17T09:05:33.695Z,99596.76
2019-03-17T09:08:03.311Z,99577.57
2019-03-17T09:10:32.926Z,99576.59
2019-03-17T09:13:07.889Z,99605.16
2019-03-17T09:15:37.956Z,99584.94
2019-03-17T09:18:08.423Z,99585.84
2019-03-17T09:20:38.638Z,99595.47
2019-03-17T09:23:08.328Z,99581.70
2019-03-17T09:25:39.669Z,99583.22
2019-03-17T09:28:09.354Z,99580.41
2019-03-17T09:30:39.012Z,99585.28
2019-03-17T09:33:08.761Z,99581.97
2019-03-17T09:35:38.420Z,99587.88
2019-03-17T09:38:08.612Z,99586.88
2019-03-17T09:40:38.642Z,99584.09
2019-03-17T09:43:08.373Z,99589.48
2019-03-17T09:45:39.786Z,99591.33
2019-03-17T09:48:09.478Z,99586.39
2019-03-17T09:50:39.182Z,99591.38
2019-03-17T09:53:08.831Z,99596.17
2019-03-17T09:55:38.774Z,99584.30
2019-03-17T09:58:08.983Z,99595.81
2019-03-17T10:00:38.604Z,99590.35
2019-03-17T10:03:08.351Z,99599.95
2019-03-17T10:05:38.140Z,99617.98
2019-03-17T10:08:08.253Z,99623.67
2019-03-17T10:10:37.864Z,99602.41
2019-03-17T10:13:07.677Z,99603.91
2019-03-17T10:15:37.617Z,99604.02
2019-03-17T10:18:07.722Z,99600.45
2019-03-17T10:20:37.393Z,99606.14
2019-03-17T10:23:07.551Z,99603.55
2019-03-17T10:25:37.556Z,99597.73
2019-03-17T10:28:08.616Z,99584.56
2019-03-17T10:30:38.347Z,99580.16
2019-03-17T10:33:07.966Z,99585.03
2019-03-17T10:35:37.614Z,99584.67
2019-03-17T10:38:07.385Z,99581.01
2019-03-17T10:40:37.353Z,99577.08
2019-03-17T10:43:07.390Z,99584.27
2019-03-17T10:45:37.040Z,99582.55
2019-03-17T10:48:06.717Z,99570.39
2019-03-17T10:50:48.762Z,99567.03
2019-03-17T10:53:07.747Z,99566.89
2019-03-17T10:55:37.656Z,99570.48
2019-03-17T10:58:07.671Z,99566.80
2019-03-17T11:00:37.560Z,99561.55
2019-03-17T11:03:07.661Z,99559.30
2019-03-17T11:05:38.010Z,99554.62
2019-03-17T11:08:07.988Z,99537.34
2019-03-17T11:10:37.609Z,99536.48
2019-03-17T11:13:07.275Z,99530.87
2019-03-17T11:15:36.888Z,99538.22
2019-03-17T11:18:06.843Z,99529.20
2019-03-17T11:20:36.987Z,99537.19
2019-03-17T11:23:07.090Z,99539.25
2019-03-17T11:25:36.708Z,99542.52
2019-03-17T11:28:06.788Z,99521.95
2019-03-17T11:30:36.468Z,99521.80
2019-03-17T11:33:06.108Z,99521.70
2019-03-17T11:35:35.918Z,99518.44
2019-03-17T11:38:05.530Z,99523.27
2019-03-17T11:40:35.253Z,99509.70
2019-03-17T11:43:04.908Z,99524.47
2019-03-17T11:45:34.520Z,99523.87
2019-03-17T11:48:04.416Z,99515.45
2019-03-17T11:50:34.787Z,99522.94
2019-03-17T11:53:04.539Z,99508.39
2019-03-17T11:55:35.114Z,99514.98
2019-03-17T11:58:04.791Z,99524.16
2019-03-17T12:00:34.449Z,99503.42
2019-03-17T12:03:04.051Z,99499.69
2019-03-17T12:05:33.735Z,99497.76
2019-03-17T12:08:10.639Z,99507.69
2019-03-17T12:10:40.173Z,99514.14
2019-03-17T12:13:11.020Z,99496.42
2019-03-17T12:15:40.641Z,99514.59
2019-03-17T12:18:10.368Z,99505.98
2019-03-17T12:20:40.642Z,99506.02
2019-03-17T12:23:10.323Z,99500.67
2019-03-17T12:25:39.999Z,99486.86
2019-03-17T12:28:09.682Z,99505.02
2019-03-17T12:30:39.931Z,99491.13
2019-03-17T12:33:09.583Z,99490.69
2019-03-17T12:35:39.799Z,99510.94
2019-03-17T12:38:09.600Z,99511.41
2019-03-17T12:40:39.255Z,99507.05
2019-03-17T12:43:08.888Z,99506.83
2019-03-17T12:45:38.530Z,99502.77
2019-03-17T12:48:08.206Z,99495.12
2019-03-17T12:50:37.842Z,99494.91
2019-03-17T12:53:09.233Z,99495.97
2019-03-17T12:55:39.352Z,99518.63
2019-03-17T12:58:08.977Z,99515.47
2019-03-17T13:00:40.971Z,99514.72
2019-03-17T13:03:12.761Z,99519.00
2019-03-17T13:05:42.440Z,99512.82
2019-03-17T13:08:12.058Z,99532.95
2019-03-17T13:10:41.884Z,99535.05
2019-03-17T13:13:11.778Z,99537.36
2019-03-17T13:15:41.400Z,99536.63
2019-03-17T13:18:11.080Z,99532.12
2019-03-17T13:20:40.771Z,99531.81
2019-03-17T13:23:10.584Z,99542.88
2019-03-17T13:25:40.341Z,99537.20
2019-03-17T13:28:13.050Z,99538.66
2019-03-17T13:30:42.662Z,99534.47
2019-03-17T13:33:12.405Z,99532.75
2019-03-17T13:35:42.847Z,99531.37
2019-03-17T13:38:12.462Z,99530.20
2019-03-17T13:40:43.194Z,99538.08
2019-03-17T13:43:13.290Z,99532.19
2019-03-17T13:45:44.467Z,99528.35
2019-03-17T13:48:14.210Z,99527.54
2019-03-17T13:50:44.155Z,99530.12
2019-03-17T13:53:13.774Z,99533.12
2019-03-17T13:55:43.468Z,99546.97
2019-03-17T13:58:13.687Z,99544.42
2019-03-17T14:00:43.354Z,99545.34
2019-03-17T14:03:13.080Z,99539.44
2019-03-17T14:05:42.743Z,99547.64
2019-03-17T14:08:12.637Z,99553.80
2019-03-17T14:10:42.292Z,99553.55
2019-03-17T14:13:12.897Z,99578.52
2019-03-17T14:15:43.368Z,99574.78
2019-03-17T14:18:13.503Z,99573.73
2019-03-17T14:20:43.956Z,99593.33
2019-03-17T14:23:13.909Z,99590.88
2019-03-17T14:25:43.554Z,99591.30
2019-03-17T14:28:13.155Z,99591.89
2019-03-17T14:30:42.782Z,99592.94
2019-03-17T14:33:12.439Z,99590.13
2019-03-17T14:35:42.192Z,99588.30
2019-03-17T14:38:13.969Z,99584.90
2019-03-17T14:40:53.299Z,99582.70
2019-03-17T14:43:15.860Z,99585.81
2019-03-17T14:45:46.573Z,99589.54
2019-03-17T14:48:16.220Z,99590.94
2019-03-17T14:50:46.857Z,99596.91
2019-03-17T14:53:16.574Z,99597.14
2019-03-17T14:55:48.177Z,99597.73
2019-03-17T14:58:20.087Z,99601.42
2019-03-17T15:00:50.007Z,99605.83
2019-03-17T15:03:19.691Z,99593.48
2019-03-17T15:05:49.307Z,99598.91
2019-03-17T15:08:18.929Z,99597.87
2019-03-17T15:10:49.058Z,99603.18
2019-03-17T15:13:18.700Z,99604.77
2019-03-17T15:15:48.341Z,99606.80
2019-03-17T15:18:18.080Z,99611.63
2019-03-17T15:20:48.543Z,99609.84
2019-03-17T15:23:18.164Z,99608.20
2019-03-17T15:25:49.982Z,99607.78
2019-03-17T15:28:20.743Z,99622.16
2019-03-17T15:31:05.577Z,99618.05
2019-03-17T15:33:24.611Z,99625.75
2019-03-17T15:35:54.675Z,99620.86
2019-03-17T15:38:24.300Z,99621.98
2019-03-17T15:40:54.996Z,99617.11
2019-03-17T15:43:24.946Z,99619.61
2019-03-17T15:45:54.598Z,99603.95
2019-03-17T15:48:27.733Z,99594.22
2019-03-17T15:50:58.401Z,99599.89
2019-03-17T15:53:31.767Z,99603.70
2019-03-17T15:56:01.658Z,99608.34
2019-03-17T15:58:34.549Z,99604.98
2019-03-17T16:01:04.590Z,99612.10
2019-03-17T16:03:34.372Z,99649.89
2019-03-17T16:06:04.346Z,99701.20
2019-03-17T16:08:34.051Z,99719.80
2019-03-17T16:11:03.979Z,99735.56
2019-03-17T16:13:33.595Z,99751.55
2019-03-17T16:16:03.342Z,99766.20
2019-03-17T16:18:32.997Z,99766.02
2019-03-17T16:21:03.189Z,99759.70
2019-03-17T16:23:32.907Z,99753.08
2019-03-17T16:26:02.553Z,99762.87
2019-03-17T16:28:34.489Z,99749.38
2019-03-17T16:31:06.741Z,99758.95
2019-03-17T16:33:36.367Z,99760.20
2019-03-17T16:36:06.870Z,99769.31
2019-03-17T16:38:38.108Z,99770.94
2019-03-17T16:41:08.452Z,99787.98
2019-03-17T16:43:38.846Z,99782.03
2019-03-17T16:46:09.577Z,99780.78
2019-03-17T16:48:39.744Z,99779.03
2019-03-17T16:51:09.466Z,99786.06
2019-03-17T16:53:40.969Z,99782.22
2019-03-17T16:56:12.024Z,99782.82
2019-03-17T16:58:41.649Z,99785.86
2019-03-17T17:01:11.442Z,99783.42
2019-03-17T17:03:41.114Z,99774.92
2019-03-17T17:06:10.852Z,99791.36
2019-03-17T17:08:42.672Z,99805.98
2019-03-17T17:11:12.511Z,99810.00
2019-03-17T17:13:42.262Z,99799.97
2019-03-17T17:16:12.710Z,99808.16
2019-03-17T17:18:42.692Z,99821.32
2019-03-17T17:21:14.127Z,99823.63
2019-03-17T17:23:44.200Z,99821.41
2019-03-17T17:26:14.158Z,99831.24
2019-03-17T17:28:43.894Z,99828.11
2019-03-17T17:31:13.531Z,99829.68
2019-03-17T17:33:43.222Z,99819.28
2019-03-17T17:36:14.217Z,99833.19
2019-03-17T17:38:44.151Z,99843.80
2019-03-17T17:41:13.726Z,99842.34
2019-03-17T17:43:43.700Z,99839.06
2019-03-17T17:46:13.365Z,99844.03
2019-03-17T17:48:43.065Z,99861.66
2019-03-17T17:51:13.290Z,99866.13
2019-03-17T17:53:42.929Z,99863.75
2019-03-17T17:56:12.712Z,99858.70
2019-03-17T17:58:42.331Z,99859.20
2019-03-17T18:01:12.864Z,99855.11
2019-03-17T18:03:51.617Z,99874.38
2019-03-17T18:06:14.021Z,99867.38
2019-03-17T18:08:45.989Z,99866.33
2019-03-17T18:11:15.700Z,99863.36
2019-03-17T18:13:54.697Z,99861.71
2019-03-17T18:16:26.070Z,99862.91
2019-03-17T18:18:55.545Z,99877.98
2019-03-17T18:21:25.654Z,99873.17
2019-03-17T18:23:58.371Z,99886.48
2019-03-17T18:26:28.088Z,99876.48
2019-03-17T18:29:01.783Z,99870.41
2019-03-17T18:31:31.551Z,99854.19
2019-03-17T18:34:02.556Z,99854.63
2019-03-17T18:36:32.204Z,99847.49
2019-03-17T18:39:01.868Z,99847.64
2019-03-17T18:41:31.481Z,99851.52
2019-03-17T18:44:01.095Z,99842.67
2019-03-17T18:46:31.100Z,99832.25
2019-03-17T18:49:01.389Z,99829.72
2019-03-17T18:51:31.006Z,99841.47
2019-03-17T18:54:01.202Z,99855.36
2019-03-17T18:56:31.021Z,99868.53
2019-03-17T18:59:00.582Z,99869.79
2019-03-17T19:01:31.214Z,99878.98
2019-03-17T19:04:01.170Z,99866.82
2019-03-17T19:06:30.774Z,99863.38
2019-03-17T19:09:00.437Z,99862.13
2019-03-17T19:11:31.675Z,99863.47
2019-03-17T19:14:02.961Z,99874.52
2019-03-17T19:16:32.660Z,99867.47
2019-03-17T19:19:02.271Z,99881.42
2019-03-17T19:21:32.346Z,99879.42
2019-03-17T19:24:02.880Z,99879.42
2019-03-17T19:26:35.454Z,99877.63
2019-03-17T19:29:05.087Z,99872.58
2019-03-17T19:31:34.777Z,99874.31
2019-03-17T19:34:08.226Z,99883.15
2019-03-17T19:36:38.899Z,99883.59
2019-03-17T19:39:08.779Z,99882.47
2019-03-17T19:41:39.454Z,99874.21
2019-03-17T19:44:09.038Z,99873.01
2019-03-17T19:46:38.806Z,99883.25
2019-03-17T19:49:08.915Z,99890.92
2019-03-17T19:51:39.797Z,99881.13
2019-03-17T19:54:09.562Z,99882.14
2019-03-17T19:56:39.204Z,99879.76
2019-03-17T19:59:08.997Z,99883.11
2019-03-17T20:01:38.699Z,99892.04
2019-03-17T20:04:08.402Z,99895.44
2019-03-17T20:06:38.248Z,99911.03
2019-03-17T20:09:07.984Z,99923.72
2019-03-17T20:11:38.411Z,99909.97
2019-03-17T20:14:08.036Z,99912.72
2019-03-17T20:16:37.753Z,99905.64
2019-03-17T20:19:07.632Z,99896.80
2019-03-17T20:21:37.241Z,99913.30
2019-03-17T20:24:07.318Z,99929.38
2019-03-17T20:26:36.965Z,99934.13
2019-03-17T20:29:06.593Z,99935.09
2019-03-17T20:31:36.295Z,99936.27
2019-03-17T20:34:06.760Z,99913.25
2019-03-17T20:36:36.395Z,99899.66
2019-03-17T20:39:07.154Z,99907.53
2019-03-17T20:41:36.799Z,99919.58
2019-03-17T20:44:06.571Z,99940.22
2019-03-17T20:46:36.245Z,99944.01
2019-03-17T20:49:06.444Z,99943.62
2019-03-17T20:51:36.377Z,99938.52
2019-03-17T20:54:08.315Z,99929.73
2019-03-17T20:56:37.942Z,99927.73
2019-03-17T20:59:07.831Z,99930.75
2019-03-17T21:01:37.487Z,99938.41
2019-03-17T21:04:08.454Z,99952.74
2019-03-17T21:06:38.089Z,99951.48
2019-03-17T21:09:08.366Z,99932.09
2019-03-17T21:11:38.644Z,99954.30
2019-03-17T21:14:08.534Z,99954.60
2019-03-17T21:16:38.971Z,99973.55
2019-03-17T21:19:09.463Z,99970.91
2019-03-17T21:21:39.085Z,99970.44
2019-03-17T21:24:08.791Z,99986.86
2019-03-17T21:26:41.326Z,99980.19
2019-03-17T21:29:11.048Z,99970.44
2019-03-17T21:31:41.018Z,99953.59
2019-03-17T21:34:11.212Z,99955.34
2019-03-17T21:36:41.807Z,99954.02
2019-03-17T21:39:11.504Z,99970.55
2019-03-17T21:41:41.113Z,99995.45
2019-03-17T21:44:10.724Z,99995.02
2019-03-17T21:46:41.306Z,100001.77
2019-03-17T21:49:12.561Z,99984.14
2019-03-17T21:51:42.127Z,99973.22
2019-03-17T21:54:11.808Z,99954.66
2019-03-17T21:56:41.801Z,99941.59
2019-03-17T21:59:12.679Z,99953.39
2019-03-17T22:01:42.393Z,99965.20
2019-03-17T22:04:13.045Z,99947.52
2019-03-17T22:06:45.079Z,99937.42
2019-03-17T22:09:17.300Z,99943.92
2019-03-17T22:11:46.846Z,99955.43
2019-03-17T22:14:16.460Z,99968.00
2019-03-17T22:16:46.490Z,99972.37
2019-03-17T22:19:16.114Z,99970.97
2019-03-17T22:21:47.307Z,99969.52
2019-03-17T22:24:17.075Z,99979.23
2019-03-17T22:26:46.779Z,99995.20
2019-03-17T22:29:16.399Z,99990.90
2019-03-17T22:31:46.068Z,99988.07
2019-03-17T22:34:16.675Z,99992.13
2019-03-17T22:36:49.248Z,99979.83
2019-03-17T22:39:18.984Z,99991.91
2019-03-17T22:41:48.596Z,99991.21
2019-03-17T22:44:24.142Z,99973.59
2019-03-17T22:46:50.361Z,99986.60
2019-03-17T22:49:19.967Z,99993.35
2019-03-17T22:51:49.710Z,100003.14
2019-03-17T22:54:20.892Z,99995.27
2019-03-17T22:56:53.609Z,100019.82
2019-03-17T22:59:24.000Z,100039.38
2019-03-17T23:01:53.898Z,100048.86
2019-03-17T23:04:23.603Z,100043.55
2019-03-17T23:06:55.254Z,100057.91
2019-03-17T23:09:26.581Z,100073.14
2019-03-17T23:11:56.283Z,100071.09
2019-03-17T23:14:36.150Z,100071.09
2019-03-17T23:16:57.969Z,100077.87
2019-03-17T23:19:27.590Z,100088.45
2019-03-17T23:21:57.202Z,100094.02
2019-03-17T23:24:26.887Z,100084.79
2019-03-17T23:26:56.590Z,100080.57
2019-03-17T23:29:26.573Z,100082.70
2019-03-17T23:31:57.120Z,100068.91
2019-03-17T23:34:26.739Z,100081.52
2019-03-17T23:36:56.348Z,100082.88
2019-03-17T23:39:26.086Z,100075.95
2019-03-17T23:41:56.066Z,100079.78
2019-03-17T23:44:25.866Z,100078.64
2019-03-17T23:46:55.552Z,100086.16
2019-03-17T23:49:25.215Z,100078.98
2019-03-17T23:51:54.828Z,100106.27
2019-03-17T23:54:24.968Z,100098.66
2019-03-17T23:56:54.580Z,100082.95
2019-03-17T23:59:24.192Z,100112.28
